Time;durP1;ratioP1;P1;durP2;ratioP2;P2;SDS_P1;SDS_P2;PMS_P1;PMS_P2;Temp;Humidity;BMP_temperature;BMP_pressure;BME280_temperature;BME280_humidity;BME280_pressure;Samples;Min_cycle;Max_cycle;Signal;HPM_P1;HPM_P2
2022/06/30 00:01:00;;;;;;;11.85;8.68;;;;;;;17.37;81.10;94653.97;1685112;83;20978;-50
2022/06/30 00:03:27;;;;;;;12.13;9.70;;;;;;;17.35;81.36;94648.91;1642666;83;21082;-50
2022/06/30 00:05:55;;;;;;;11.75;9.80;;;;;;;17.32;81.21;94641.50;1688502;83;21671;-50
2022/06/30 00:08:24;;;;;;;10.23;9.23;;;;;;;17.27;81.41;94641.48;1684392;84;21038;-50
2022/06/30 00:10:52;;;;;;;11.00;9.80;;;;;;;17.20;81.41;94648.86;1682569;83;20954;-50
2022/06/30 00:13:21;;;;;;;14.15;9.78;;;;;;;17.12;81.77;94642.22;1634223;83;21531;-50
2022/06/30 00:15:49;;;;;;;10.53;8.68;;;;;;;17.09;82.52;94636.26;1686665;83;21041;-50
2022/06/30 00:18:17;;;;;;;11.90;10.55;;;;;;;17.10;82.80;94645.48;1686345;83;21895;-51
2022/06/30 00:20:44;;;;;;;15.53;10.28;;;;;;;17.11;82.78;94647.00;1694749;83;21664;-51
2022/06/30 00:23:12;;;;;;;13.05;10.00;;;;;;;17.12;82.86;94644.36;1694812;84;21070;-51
2022/06/30 00:25:41;;;;;;;13.05;9.95;;;;;;;17.13;82.87;94632.63;1686436;83;20990;-51
2022/06/30 00:28:09;;;;;;;10.85;9.75;;;;;;;17.10;83.07;94637.14;1695656;83;21122;-51
2022/06/30 00:30:38;;;;;;;12.40;9.38;;;;;;;17.10;82.86;94648.27;1690739;83;21151;-50
2022/06/30 00:33:06;;;;;;;11.97;9.68;;;;;;;17.03;82.44;94640.98;1658499;85;21094;-51
2022/06/30 00:35:34;;;;;;;13.35;10.08;;;;;;;16.95;82.86;94649.00;1690581;83;20995;-50
2022/06/30 00:38:04;;;;;;;12.50;9.70;;;;;;;16.90;83.22;94640.63;1695820;83;20979;-49
2022/06/30 00:40:37;;;;;;;12.88;10.80;;;;;;;16.89;83.65;94641.23;1689954;83;21581;-50
2022/06/30 00:43:07;;;;;;;15.25;10.40;;;;;;;16.87;83.76;94645.78;1687921;83;21939;-51
2022/06/30 00:45:43;;;;;;;18.65;11.83;;;;;;;16.80;83.86;94637.24;1709522;83;21003;-50
2022/06/30 00:48:11;;;;;;;30.32;13.05;;;;;;;16.76;83.91;94635.92;1694231;83;20975;-50
2022/06/30 00:50:39;;;;;;;22.50;13.43;;;;;;;16.73;83.90;94640.44;1685052;83;21171;-50
2022/06/30 00:53:09;;;;;;;30.45;16.97;;;;;;;16.67;84.00;94640.23;1687886;83;21096;-50
2022/06/30 00:55:37;;;;;;;26.33;14.60;;;;;;;16.64;84.17;94637.83;1694406;83;21229;-51
2022/06/30 00:58:07;;;;;;;21.52;13.58;;;;;;;16.60;84.33;94638.67;1693482;83;21192;-50
2022/06/30 01:00:39;;;;;;;26.95;16.85;;;;;;;16.60;84.44;94642.06;1687807;83;21102;-50
2022/06/30 01:03:10;;;;;;;22.40;15.50;;;;;;;16.61;84.33;94642.20;1683224;83;27038;-50
2022/06/30 01:05:38;;;;;;;20.35;13.30;;;;;;;16.62;84.33;94640.95;1684422;83;21510;-50
2022/06/30 01:08:07;;;;;;;16.67;11.55;;;;;;;16.60;84.11;94636.50;1703114;83;21286;-49
2022/06/30 01:13:23;;;;;;;24.82;12.93;;;;;;;16.54;83.75;94633.66;1677953;83;21078;-51
2022/06/30 01:15:51;;;;;;;27.25;13.58;;;;;;;16.53;84.03;94629.36;1637522;84;21089;-50
2022/06/30 01:18:19;;;;;;;27.77;14.45;;;;;;;16.50;84.65;94626.78;1688981;83;21085;-50
2022/06/30 01:20:48;;;;;;;25.95;13.53;;;;;;;16.48;84.65;94632.06;1688354;83;21306;-51
2022/06/30 01:23:18;;;;;;;18.92;12.25;;;;;;;16.45;84.71;94630.27;1685019;83;21015;-50
2022/06/30 01:25:46;;;;;;;19.25;11.73;;;;;;;16.41;84.63;94625.55;1693334;83;21498;-50
2022/06/30 01:28:14;;;;;;;18.87;12.28;;;;;;;16.41;84.51;94624.17;1702714;83;20987;-51
2022/06/30 01:30:42;;;;;;;26.02;12.45;;;;;;;16.39;84.40;94628.06;1690108;83;20970;-50
2022/06/30 01:33:11;;;;;;;23.92;13.28;;;;;;;16.37;84.34;94626.40;1690406;83;21315;-51
2022/06/30 01:35:41;;;;;;;21.70;12.78;;;;;;;16.31;84.35;94624.13;1691248;83;21101;-51
2022/06/30 01:38:09;;;;;;;22.32;12.55;;;;;;;16.28;84.64;94626.50;1694039;83;21061;-50
2022/06/30 01:40:37;;;;;;;12.15;10.53;;;;;;;16.26;84.74;94629.64;1676672;84;21063;-51
2022/06/30 01:43:06;;;;;;;15.75;11.25;;;;;;;16.21;84.94;94631.70;1684256;83;20962;-50
2022/06/30 01:45:34;;;;;;;13.55;11.48;;;;;;;16.18;85.34;94629.91;1700890;83;21233;-51
2022/06/30 01:48:02;;;;;;;12.40;10.50;;;;;;;16.13;85.14;94625.80;1696637;83;21192;-51
2022/06/30 01:50:31;;;;;;;16.65;11.22;;;;;;;16.07;85.01;94626.36;1698046;83;20980;-50
2022/06/30 01:52:58;;;;;;;22.40;11.25;;;;;;;16.02;85.30;94624.28;1668625;84;21066;-50
2022/06/30 01:55:27;;;;;;;12.50;10.95;;;;;;;16.05;85.66;94628.86;1679588;84;21014;-50
2022/06/30 01:57:56;;;;;;;19.87;10.40;;;;;;;16.11;85.87;94624.14;1689589;83;21506;-51
2022/06/30 02:00:25;;;;;;;15.40;10.18;;;;;;;16.15;85.48;94616.39;1693509;83;20966;-50
2022/06/30 02:02:54;;;;;;;15.93;10.90;;;;;;;16.13;85.35;94620.89;1699814;84;21167;-49
2022/06/30 02:05:21;;;;;;;11.83;9.58;;;;;;;16.06;85.29;94626.22;1693872;84;20980;-52
2022/06/30 02:07:51;;;;;;;12.55;10.72;;;;;;;16.00;85.51;94630.95;1702082;84;21011;-50
2022/06/30 02:10:21;;;;;;;14.45;10.23;;;;;;;15.96;86.07;94635.95;1684819;84;21174;-51
2022/06/30 02:12:51;;;;;;;17.02;12.53;;;;;;;15.96;86.23;94634.56;1703151;84;20999;-51
2022/06/30 02:15:33;;;;;;;17.32;11.83;;;;;;;15.89;86.11;94631.42;1666888;84;21674;-51
2022/06/30 02:18:03;;;;;;;19.27;11.70;;;;;;;15.84;86.26;94630.70;1686226;84;21545;-51
2022/06/30 02:20:31;;;;;;;21.45;10.43;;;;;;;15.81;86.17;94627.52;1690245;83;20962;-51
2022/06/30 02:23:00;;;;;;;17.90;12.53;;;;;;;15.75;86.18;94626.05;1702077;83;21231;-50
2022/06/30 02:25:30;;;;;;;14.85;11.57;;;;;;;15.74;86.38;94624.52;1683394;83;21061;-50
2022/06/30 02:27:58;;;;;;;25.23;13.83;;;;;;;15.76;86.83;94626.18;1682668;83;20980;-50
2022/06/30 02:30:27;;;;;;;20.75;12.35;;;;;;;15.78;87.06;94630.65;1692331;83;21495;-51
2022/06/30 02:32:55;;;;;;;18.48;13.18;;;;;;;15.73;86.90;94631.95;1695631;83;20983;-53
2022/06/30 02:35:24;;;;;;;34.70;17.00;;;;;;;15.64;87.03;94630.06;1683804;84;21239;-50
2022/06/30 02:37:53;;;;;;;27.02;15.70;;;;;;;15.59;87.07;94632.75;1690934;83;21423;-51
2022/06/30 02:40:21;;;;;;;25.02;14.75;;;;;;;15.56;87.29;94626.14;1700516;83;20972;-50
2022/06/30 02:42:50;;;;;;;29.10;16.00;;;;;;;15.59;87.30;94630.75;1703646;83;21058;-52
2022/06/30 02:45:18;;;;;;;23.38;16.48;;;;;;;15.59;87.05;94636.30;1685070;84;21070;-50
2022/06/30 02:47:48;;;;;;;21.60;13.65;;;;;;;15.55;87.17;94635.70;1692189;83;21301;-50
2022/06/30 02:50:16;;;;;;;30.02;14.98;;;;;;;15.50;87.10;94635.01;1694784;83;21098;-52
2022/06/30 02:52:44;;;;;;;28.90;14.75;;;;;;;15.41;86.98;94628.20;1696675;83;21022;-51
2022/06/30 02:55:13;;;;;;;31.40;15.58;;;;;;;15.37;87.33;94635.94;1701069;83;21065;-51
2022/06/30 02:57:41;;;;;;;28.85;15.38;;;;;;;15.35;87.61;94632.88;1701411;83;21426;-50
2022/06/30 03:00:11;;;;;;;37.73;18.80;;;;;;;15.37;87.69;94628.25;1700750;83;21152;-51
2022/06/30 03:02:39;;;;;;;31.33;18.73;;;;;;;15.37;87.59;94631.78;1687362;83;21052;-50
2022/06/30 03:05:08;;;;;;;27.95;14.90;;;;;;;15.32;87.66;94624.78;1693342;84;21231;-51
2022/06/30 03:07:36;;;;;;;30.80;16.30;;;;;;;15.32;87.68;94623.39;1698133;84;21455;-51
2022/06/30 03:10:04;;;;;;;36.70;14.80;;;;;;;15.36;87.75;94622.57;1685125;83;21007;-51
2022/06/30 03:12:37;;;;;;;25.37;14.58;;;;;;;15.40;87.51;94625.27;1694256;84;21268;-51
2022/06/30 03:15:07;;;;;;;36.05;17.10;;;;;;;15.40;87.59;94621.11;1684605;83;20995;-50
2022/06/30 03:17:35;;;;;;;38.75;17.87;;;;;;;15.40;87.70;94625.27;1691412;83;20984;-51
2022/06/30 03:20:04;;;;;;;26.60;15.88;;;;;;;15.41;88.06;94629.59;1690499;83;21002;-52
2022/06/30 03:22:32;;;;;;;28.07;14.85;;;;;;;15.50;88.02;94632.84;1706824;83;20993;-50
2022/06/30 03:25:01;;;;;;;31.80;15.38;;;;;;;15.53;87.32;94624.98;1687383;83;21286;-51
2022/06/30 03:27:29;;;;;;;29.72;16.42;;;;;;;15.56;87.36;94623.38;1682823;83;21086;-51
2022/06/30 03:29:56;;;;;;;33.18;16.07;;;;;;;15.63;87.32;94628.53;1695458;83;21058;-51
2022/06/30 03:32:25;;;;;;;21.40;15.78;;;;;;;15.73;87.05;94634.09;1699065;83;21585;-51
2022/06/30 03:34:53;;;;;;;23.38;14.65;;;;;;;15.83;86.82;94637.50;1686341;83;21031;-50
2022/06/30 03:37:22;;;;;;;27.65;13.72;;;;;;;15.93;86.29;94642.44;1689738;83;21494;-51
2022/06/30 03:39:51;;;;;;;24.92;14.65;;;;;;;16.02;85.92;94632.61;1700028;83;21018;-51
2022/06/30 03:42:19;;;;;;;29.18;16.07;;;;;;;16.12;85.57;94631.21;1691824;83;21514;-51
2022/06/30 03:44:46;;;;;;;34.88;16.70;;;;;;;16.20;85.30;94626.02;1694772;83;21157;-51
2022/06/30 03:47:14;;;;;;;28.05;16.73;;;;;;;16.23;85.19;94624.42;1687002;83;20971;-51
2022/06/30 03:49:41;;;;;;;43.33;20.12;;;;;;;16.28;85.16;94630.66;1691836;83;21212;-52
2022/06/30 03:52:09;;;;;;;27.27;16.12;;;;;;;16.29;84.82;94631.58;1693598;83;20984;-53
2022/06/30 03:54:39;;;;;;;24.23;15.55;;;;;;;16.34;84.68;94629.52;1688997;83;21018;-51
2022/06/30 03:57:07;;;;;;;25.20;15.20;;;;;;;16.40;84.55;94625.42;1692521;83;21073;-52
2022/06/30 03:59:36;;;;;;;25.35;15.65;;;;;;;16.46;84.46;94624.23;1693241;83;21578;-52
2022/06/30 04:02:05;;;;;;;22.70;14.65;;;;;;;16.49;84.41;94622.48;1688216;83;21923;-50
2022/06/30 04:04:33;;;;;;;28.77;14.33;;;;;;;16.59;84.28;94629.42;1679349;84;21015;-51
2022/06/30 04:07:04;;;;;;;24.57;14.90;;;;;;;16.65;84.02;94624.68;1695026;83;21078;-49
2022/06/30 04:09:31;;;;;;;17.75;12.98;;;;;;;16.73;83.73;94627.19;1699385;83;21597;-52
2022/06/30 04:11:59;;;;;;;17.10;12.00;;;;;;;16.78;83.57;94618.91;1688229;83;21110;-51
2022/06/30 04:14:28;;;;;;;15.00;11.95;;;;;;;16.86;83.34;94617.21;1688596;83;21188;-51
2022/06/30 04:16:56;;;;;;;14.45;10.72;;;;;;;16.95;82.97;94617.67;1681815;83;20958;-50
2022/06/30 04:19:25;;;;;;;18.80;12.45;;;;;;;17.03;82.59;94618.13;1665486;84;21058;-50
2022/06/30 04:21:53;;;;;;;17.50;13.35;;;;;;;17.15;82.09;94615.60;1683037;83;21125;-51
2022/06/30 04:24:21;;;;;;;15.70;11.90;;;;;;;17.26;81.70;94620.49;1688771;83;20956;-51
2022/06/30 04:26:49;;;;;;;19.55;12.18;;;;;;;17.34;81.53;94614.63;1667814;83;21035;-50
2022/06/30 04:29:17;;;;;;;14.30;11.03;;;;;;;17.44;81.36;94612.56;1687698;83;21110;-51
2022/06/30 04:34:31;;;;;;;13.55;10.98;;;;;;;17.66;80.85;94598.80;1691653;83;21010;-49
2022/06/30 04:36:59;;;;;;;12.25;10.30;;;;;;;17.81;80.74;94602.84;1691472;83;21590;-53
2022/06/30 04:39:27;;;;;;;16.15;11.15;;;;;;;17.96;80.37;94596.45;1692119;83;21131;-53
2022/06/30 04:41:55;;;;;;;17.00;11.28;;;;;;;18.04;79.42;94596.13;1697232;83;20970;-54
2022/06/30 04:44:23;;;;;;;14.43;10.72;;;;;;;18.13;79.01;94601.60;1672910;83;21047;-53
2022/06/30 04:46:51;;;;;;;12.07;10.18;;;;;;;18.22;78.43;94604.19;1693251;83;21200;-53
2022/06/30 04:49:19;;;;;;;13.03;10.40;;;;;;;18.34;78.01;94598.06;1684213;83;21516;-55
2022/06/30 04:51:47;;;;;;;17.75;10.40;;;;;;;18.49;77.50;94598.63;1669917;83;21157;-53
2022/06/30 04:54:16;;;;;;;14.23;10.93;;;;;;;18.62;76.77;94597.54;1690380;83;21131;-53
2022/06/30 04:56:44;;;;;;;15.05;10.82;;;;;;;18.70;76.12;94600.73;1698212;83;21157;-54
2022/06/30 04:59:13;;;;;;;13.05;10.13;;;;;;;18.74;75.55;94598.45;1683223;83;21065;-53
2022/06/30 05:01:41;;;;;;;19.75;10.40;;;;;;;18.78;75.36;94593.39;1672151;83;21058;-55
2022/06/30 05:04:10;;;;;;;16.27;11.33;;;;;;;18.90;75.15;94599.75;1680521;83;21245;-53
2022/06/30 05:06:38;;;;;;;14.68;11.38;;;;;;;19.00;74.65;94598.25;1685924;83;21178;-54
2022/06/30 05:09:06;;;;;;;17.17;11.68;;;;;;;19.05;74.10;94603.81;1687401;83;21715;-53
2022/06/30 05:11:35;;;;;;;18.07;10.65;;;;;;;19.08;73.95;94596.48;1688171;82;21219;-58
2022/06/30 05:14:03;;;;;;;15.40;10.45;;;;;;;19.11;73.80;94594.84;1697934;83;21443;-54
2022/06/30 05:16:31;;;;;;;17.82;9.80;;;;;;;19.20;73.60;94598.05;1690011;83;21160;-55
2022/06/30 05:18:59;;;;;;;18.07;11.18;;;;;;;19.27;73.33;94599.70;1694039;83;21034;-53
2022/06/30 05:21:27;;;;;;;24.12;10.80;;;;;;;19.34;73.15;94598.44;1693159;83;21245;-53
2022/06/30 05:26:42;;;;;;;17.95;10.80;;;;;;;19.46;72.77;94599.33;1691070;83;21090;-53
2022/06/30 05:29:10;;;;;;;17.62;11.33;;;;;;;19.53;72.66;94602.98;1699298;83;21088;-54
2022/06/30 05:31:38;;;;;;;11.05;9.10;;;;;;;19.63;72.30;94602.87;1692195;83;21183;-54
2022/06/30 05:34:05;;;;;;;14.15;9.68;;;;;;;19.77;72.09;94596.23;1698321;83;21070;-55
2022/06/30 05:36:34;;;;;;;12.13;9.85;;;;;;;19.93;71.89;94597.49;1696609;83;20972;-55
2022/06/30 05:39:02;;;;;;;18.52;11.70;;;;;;;20.05;71.32;94599.77;1697986;83;21066;-55
2022/06/30 05:41:30;;;;;;;25.52;11.10;;;;;;;20.14;70.87;94598.08;1681582;83;22274;-54
2022/06/30 05:43:58;;;;;;;14.80;10.25;;;;;;;20.22;70.50;94596.30;1682023;83;21073;-54
2022/06/30 05:46:26;;;;;;;21.15;11.00;;;;;;;20.36;70.22;94600.17;1658380;84;21160;-57
2022/06/30 05:48:55;;;;;;;20.50;12.07;;;;;;;20.49;69.86;94600.38;1673926;85;21086;-56
2022/06/30 05:51:22;;;;;;;13.15;8.88;;;;;;;20.68;69.36;94588.73;1643781;85;21158;-56
2022/06/30 05:53:50;;;;;;;14.13;9.60;;;;;;;20.84;68.32;94594.91;1673156;83;21196;-57
2022/06/30 05:56:18;;;;;;;14.03;10.20;;;;;;;20.97;67.75;94588.72;1683297;82;21117;-56
2022/06/30 05:58:46;;;;;;;10.32;9.23;;;;;;;21.06;67.40;94588.39;1673799;82;21371;-56
2022/06/30 06:01:13;;;;;;;11.53;9.43;;;;;;;21.15;67.13;94586.70;1684187;83;21555;-55
2022/06/30 06:03:41;;;;;;;12.45;9.00;;;;;;;21.23;67.13;94583.45;1698751;82;21191;-57
2022/06/30 06:06:08;;;;;;;12.28;9.00;;;;;;;21.37;67.14;94582.33;1681745;81;21180;-55
2022/06/30 06:08:36;;;;;;;17.30;8.80;;;;;;;21.45;66.52;94573.50;1677926;83;20902;-55
2022/06/30 06:11:06;;;;;;;18.45;9.95;;;;;;;21.53;65.67;94575.20;1666434;83;21084;-59
2022/06/30 06:13:33;;;;;;;17.42;9.90;;;;;;;21.61;65.48;94579.57;1680854;82;21577;-59
2022/06/30 06:16:00;;;;;;;11.33;8.88;;;;;;;21.72;65.45;94576.71;1683594;82;21644;-57
2022/06/30 06:18:27;;;;;;;16.80;9.70;;;;;;;21.84;64.93;94573.93;1656844;84;21884;-59
2022/06/30 06:20:55;;;;;;;16.23;10.90;;;;;;;21.97;64.67;94570.61;1682149;83;21054;-59
2022/06/30 06:23:22;;;;;;;19.82;10.25;;;;;;;22.09;64.41;94568.55;1653164;83;21071;-62
2022/06/30 06:25:51;;;;;;;16.23;10.00;;;;;;;22.22;63.95;94566.50;1659336;84;21034;-61
2022/06/30 06:31:04;;;;;;;23.10;10.25;;;;;;;22.49;63.26;94574.61;1685723;83;21386;-58
2022/06/30 06:33:32;;;;;;;22.22;10.23;;;;;;;22.63;62.73;94562.86;1683214;83;21062;-59
2022/06/30 06:35:59;;;;;;;17.65;9.28;;;;;;;22.75;62.34;94563.58;1673242;83;21037;-56
2022/06/30 06:38:27;;;;;;;13.68;8.98;;;;;;;22.86;62.11;94563.41;1680752;82;21019;-59
2022/06/30 06:40:55;;;;;;;21.80;10.70;;;;;;;22.99;61.70;94564.15;1677247;82;21640;-62
2022/06/30 06:43:22;;;;;;;17.50;9.63;;;;;;;23.12;61.28;94562.19;1690976;81;22422;-61
2022/06/30 06:45:50;;;;;;;26.73;9.55;;;;;;;23.24;60.89;94562.77;1681675;83;21019;-62
2022/06/30 06:48:18;;;;;;;13.93;8.33;;;;;;;23.36;60.52;94552.23;1686706;83;22128;-59
2022/06/30 06:50:45;;;;;;;11.55;7.92;;;;;;;23.47;60.35;94552.06;1684294;83;21179;-56
2022/06/30 06:53:13;;;;;;;10.98;8.45;;;;;;;23.61;59.95;94552.19;1683215;83;21496;-57
2022/06/30 06:55:41;;;;;;;13.08;9.00;;;;;;;23.74;59.75;94552.89;1680537;83;22112;-59
2022/06/30 06:58:10;;;;;;;12.55;8.60;;;;;;;23.88;59.32;94543.20;1679500;83;21215;-59
2022/06/30 07:00:37;;;;;;;12.18;8.05;;;;;;;24.04;58.67;94535.22;1689250;83;21053;-58
2022/06/30 07:03:05;;;;;;;14.85;8.48;;;;;;;24.19;58.18;94534.70;1691584;82;21101;-58
2022/06/30 07:05:32;;;;;;;11.45;8.15;;;;;;;24.33;57.71;94533.38;1690486;82;21994;-56
2022/06/30 07:08:00;;;;;;;12.80;8.73;;;;;;;24.47;57.27;94539.88;1685649;83;21211;-62
2022/06/30 07:10:28;;;;;;;14.35;9.10;;;;;;;24.62;56.58;94533.71;1654450;83;21144;-60
2022/06/30 07:12:56;;;;;;;17.20;8.03;;;;;;;24.77;56.07;94530.42;1677468;83;21110;-63
2022/06/30 07:15:23;;;;;;;15.72;8.85;;;;;;;24.94;55.70;94530.08;1681443;83;21070;-60
2022/06/30 07:17:51;;;;;;;11.70;8.45;;;;;;;25.07;55.22;94528.60;1689357;82;22433;-58
2022/06/30 07:20:18;;;;;;;8.48;7.55;;;;;;;25.21;54.32;94535.73;1687001;82;21771;-61
2022/06/30 07:22:45;;;;;;;13.85;7.50;;;;;;;25.33;53.91;94533.52;1687552;82;20931;-60
2022/06/30 07:25:12;;;;;;;13.65;7.40;;;;;;;25.48;53.54;94534.33;1674800;82;21143;-57
2022/06/30 07:27:40;;;;;;;11.50;7.30;;;;;;;25.62;52.99;94521.66;1688132;81;21029;-58
2022/06/30 07:30:08;;;;;;;11.30;7.83;;;;;;;25.81;52.20;94529.27;1690195;82;22096;-61
2022/06/30 07:32:36;;;;;;;11.55;8.05;;;;;;;25.96;51.67;94518.22;1688630;81;21260;-58
2022/06/30 07:35:05;;;;;;;9.33;6.83;;;;;;;26.12;51.27;94517.69;1683109;82;21570;-56
2022/06/30 07:37:39;;;;;;;12.82;7.40;;;;;;;26.31;51.54;94523.16;1689397;83;33456;-58
2022/06/30 07:40:08;;;;;;;8.73;7.00;;;;;;;26.53;51.40;94523.22;1669813;83;21536;-65
2022/06/30 07:42:35;;;;;;;9.63;8.73;;;;;;;26.71;50.34;94513.04;1682916;83;21066;-60
2022/06/30 07:45:06;;;;;;;11.70;8.40;;;;;;;26.88;50.36;94510.48;1673667;83;22231;-64
2022/06/30 07:47:34;;;;;;;14.25;10.88;;;;;;;27.07;50.46;94511.59;1686893;82;21025;-60
2022/06/30 07:50:02;;;;;;;18.30;13.58;;;;;;;27.26;50.26;94511.37;1688106;82;21391;-57
2022/06/30 07:52:30;;;;;;;16.85;11.12;;;;;;;27.48;50.16;94510.67;1691271;82;21053;-61
2022/06/30 07:54:58;;;;;;;9.58;8.00;;;;;;;27.67;49.52;94515.31;1664285;83;21053;-57
2022/06/30 07:57:27;;;;;;;10.48;6.97;;;;;;;27.83;49.69;94511.20;1679971;83;21760;-58
2022/06/30 07:59:54;;;;;;;12.58;7.25;;;;;;;28.00;48.81;94510.71;1683647;82;21116;-62
2022/06/30 08:02:22;;;;;;;11.68;8.25;;;;;;;28.17;48.99;94519.38;1672934;82;22044;-57
2022/06/30 08:04:49;;;;;;;13.08;8.75;;;;;;;28.35;48.43;94510.40;1676218;82;21052;-61
2022/06/30 08:07:17;;;;;;;11.75;7.60;;;;;;;28.48;46.84;94508.77;1684145;82;21082;-59
2022/06/30 08:09:44;;;;;;;10.40;7.20;;;;;;;28.62;46.81;94509.39;1646849;83;21120;-59
2022/06/30 08:12:11;;;;;;;12.70;6.28;;;;;;;28.79;46.22;94506.69;1687416;82;21093;-60
2022/06/30 08:14:40;;;;;;;9.80;6.67;;;;;;;28.98;45.81;94511.94;1684513;82;21095;-59
2022/06/30 08:17:08;;;;;;;8.68;5.80;;;;;;;29.16;45.03;94505.05;1682068;82;21429;-60
2022/06/30 08:19:36;;;;;;;9.03;5.80;;;;;;;29.36;43.51;94509.66;1683771;83;21150;-61
2022/06/30 08:22:03;;;;;;;7.28;5.72;;;;;;;29.55;42.99;94502.20;1684306;82;21292;-62
2022/06/30 08:24:31;;;;;;;7.50;5.60;;;;;;;29.75;42.29;94496.86;1686570;82;21062;-60
2022/06/30 08:27:02;;;;;;;9.30;5.80;;;;;;;29.93;42.39;94498.42;1684386;82;21162;-60
2022/06/30 08:29:27;;;;;;;7.53;5.87;;;;;;;30.14;42.29;94495.98;1682739;82;21026;-56
2022/06/30 08:31:55;;;;;;;7.70;5.30;;;;;;;30.32;41.12;94496.83;1689371;82;21049;-64
2022/06/30 08:34:22;;;;;;;8.13;5.50;;;;;;;30.52;40.78;94490.68;1680962;82;21108;-62
2022/06/30 08:36:50;;;;;;;9.28;5.20;;;;;;;30.66;39.88;94494.73;1664422;83;21168;-61
2022/06/30 08:42:04;;;;;;;6.17;5.08;;;;;;;30.96;38.12;94483.75;1688079;82;21022;-61
2022/06/30 08:44:34;;;;;;;9.60;5.22;;;;;;;31.19;38.68;94482.07;1659498;83;21557;-58
2022/06/30 08:47:03;;;;;;;7.70;5.20;;;;;;;31.38;38.83;94475.81;1691281;82;21295;-57
2022/06/30 08:49:31;;;;;;;7.42;4.60;;;;;;;31.54;37.30;94479.17;1679957;82;21090;-59
2022/06/30 08:52:00;;;;;;;9.33;4.53;;;;;;;31.68;36.68;94478.24;1690768;82;21078;-59
2022/06/30 08:54:28;;;;;;;5.08;4.55;;;;;;;31.76;34.58;94470.33;1683975;82;21011;-58
2022/06/30 08:56:57;;;;;;;46.98;5.95;;;;;;;31.85;33.95;94471.05;1689368;83;21049;-58
2022/06/30 08:59:24;;;;;;;5.28;3.95;;;;;;;31.99;33.18;94470.70;1684714;83;22653;-60
2022/06/30 09:01:54;;;;;;;7.70;4.08;;;;;;;32.17;33.37;94467.85;1681797;82;21475;-59
2022/06/30 09:04:22;;;;;;;6.87;4.10;;;;;;;32.33;32.70;94461.97;1681991;83;21010;-59
2022/06/30 09:06:49;;;;;;;5.28;4.40;;;;;;;32.48;31.80;94463.12;1678617;83;21082;-61
2022/06/30 09:09:16;;;;;;;10.93;3.87;;;;;;;32.67;32.81;94456.00;1687019;83;21079;-59
2022/06/30 09:11:50;;;;;;;6.62;4.15;;;;;;;32.85;33.51;94461.66;1682909;83;21307;-59
2022/06/30 09:14:42;;;;;;;6.53;3.80;;;;;;;32.97;31.78;94454.73;1685918;83;21021;-58
2022/06/30 09:17:13;;;;;;;7.55;4.45;;;;;;;33.14;31.96;94448.12;1654863;83;21023;-56
2022/06/30 09:19:58;;;;;;;5.00;4.12;;;;;;;33.21;31.32;94449.42;1680890;82;21937;-59
2022/06/30 09:22:34;;;;;;;5.53;4.35;;;;;;;33.11;29.95;94455.78;1656703;83;21058;-59
2022/06/30 09:25:09;;;;;;;5.03;3.35;;;;;;;32.87;31.49;94454.67;1653287;83;21116;-58
2022/06/30 09:27:39;;;;;;;25.52;5.22;;;;;;;32.64;31.42;94466.48;1645345;84;22067;-59
2022/06/30 09:30:11;;;;;;;10.43;5.17;;;;;;;32.38;34.94;94473.77;1678025;83;21079;-54
2022/06/30 09:32:54;;;;;;;14.33;5.92;;;;;;;31.95;38.95;94481.78;1679729;83;21085;-57
2022/06/30 09:35:27;;;;;;;10.30;3.65;;;;;;;31.23;46.29;94500.19;1684638;83;21122;-59
2022/06/30 09:38:04;;;;;;;7.80;4.40;;;;;;;29.77;40.67;94516.13;1685684;83;22598;-56
2022/06/30 09:41:01;;;;;;;9.85;4.28;;;;;;;28.45;43.31;94507.09;1688779;82;21048;-62
2022/06/30 09:43:37;;;;;;;8.18;4.15;;;;;;;27.54;47.53;94512.66;1690870;82;20977;-60
2022/06/30 09:46:05;;;;;;;6.17;3.58;;;;;;;26.60;49.68;94493.62;1689323;83;21061;-62
2022/06/30 09:48:33;;;;;;;5.22;4.28;;;;;;;25.86;52.28;94479.80;1685301;82;22182;-62
2022/06/30 09:51:02;;;;;;;5.08;3.50;;;;;;;25.35;54.38;94478.81;1665849;83;21102;-56
2022/06/30 09:53:29;;;;;;;7.15;4.50;;;;;;;24.92;55.72;94475.72;1663383;83;21706;-58
2022/06/30 09:55:57;;;;;;;6.05;3.70;;;;;;;24.56;58.45;94471.92;1647120;83;21044;-55
2022/06/30 09:58:35;;;;;;;6.05;3.90;;;;;;;24.21;60.23;94478.68;1641030;83;20994;-57
2022/06/30 10:01:03;;;;;;;10.65;4.78;;;;;;;23.97;61.52;94484.50;1686339;82;21602;-57
2022/06/30 10:03:30;;;;;;;4.30;3.55;;;;;;;23.88;63.32;94484.18;1688618;83;21300;-61
2022/06/30 10:06:09;;;;;;;7.37;4.70;;;;;;;23.87;65.53;94479.86;1687669;82;21061;-56
2022/06/30 10:08:37;;;;;;;5.90;4.00;;;;;;;23.79;66.50;94483.92;1684804;83;21077;-55
2022/06/30 10:11:05;;;;;;;5.87;4.60;;;;;;;23.78;68.27;94488.70;1653048;83;21128;-56
2022/06/30 10:13:36;;;;;;;5.22;4.60;;;;;;;23.81;69.62;94489.80;1673763;82;21118;-60
2022/06/30 10:16:05;;;;;;;4.40;3.95;;;;;;;23.90;71.21;94485.83;1682149;83;22914;-55
2022/06/30 10:18:39;;;;;;;4.45;4.05;;;;;;;24.06;70.73;94489.70;1684080;83;21064;-57
2022/06/30 10:21:08;;;;;;;7.03;4.53;;;;;;;24.33;70.48;94492.59;1660264;83;21148;-60
2022/06/30 10:23:36;;;;;;;5.78;4.50;;;;;;;24.63;69.96;94484.58;1686828;83;21021;-58
2022/06/30 10:26:03;;;;;;;6.65;4.92;;;;;;;24.96;69.72;94479.61;1683998;82;21117;-58
2022/06/30 10:28:31;;;;;;;7.35;5.40;;;;;;;25.38;69.49;94481.16;1684003;83;21112;-59
2022/06/30 10:31:17;;;;;;;7.75;6.05;;;;;;;25.85;68.70;94485.34;1685397;83;20995;-57
2022/06/30 10:34:11;;;;;;;8.20;4.97;;;;;;;26.26;65.03;94469.06;1688745;82;22239;-62
2022/06/30 10:37:16;;;;;;;8.48;5.03;;;;;;;26.76;64.87;94464.15;1681979;83;20980;-57
2022/06/30 10:40:05;;;;;;;10.55;5.20;;;;;;;27.50;64.65;94461.40;1690110;82;21057;-58
2022/06/30 10:42:48;;;;;;;6.70;3.95;;;;;;;28.19;60.82;94461.55;1658935;83;22323;-57
2022/06/30 10:45:33;;;;;;;4.65;4.15;;;;;;;28.81;57.04;94465.05;1688824;82;21021;-60
2022/06/30 10:48:08;;;;;;;16.75;5.70;;;;;;;29.45;54.01;94460.83;1685684;83;21067;-63
2022/06/30 10:50:42;;;;;;;10.88;5.05;;;;;;;30.15;50.50;94451.39;1686691;82;21031;-59
2022/06/30 10:53:15;;;;;;;17.25;5.00;;;;;;;30.61;47.57;94454.52;1681144;82;21048;-60
2022/06/30 10:55:51;;;;;;;11.48;5.10;;;;;;;31.20;47.46;94453.03;1662376;83;21203;-60
2022/06/30 10:58:22;;;;;;;4.78;4.37;;;;;;;31.80;43.80;94449.98;1684779;83;21062;-60
2022/06/30 11:01:05;;;;;;;6.12;4.60;;;;;;;32.31;42.02;94457.55;1666244;83;21040;-60
2022/06/30 11:03:40;;;;;;;6.42;4.85;;;;;;;32.71;38.32;94449.97;1689492;82;21046;-60
2022/06/30 11:06:12;;;;;;;7.47;4.60;;;;;;;33.10;35.73;94445.73;1682195;82;21711;-61
2022/06/30 11:08:48;;;;;;;7.67;4.65;;;;;;;33.36;34.97;94442.63;1661777;83;21130;-60
2022/06/30 11:11:24;;;;;;;9.60;5.30;;;;;;;33.61;33.93;94441.55;1684976;83;21202;-60
2022/06/30 11:14:07;;;;;;;10.08;5.50;;;;;;;33.93;34.91;94431.08;1678690;83;20994;-62
2022/06/30 11:16:37;;;;;;;7.97;4.65;;;;;;;34.42;33.75;94424.50;1673870;82;21574;-61
2022/06/30 11:19:07;;;;;;;8.60;5.62;;;;;;;34.94;33.49;94428.02;1679455;83;21629;-59
2022/06/30 11:21:35;;;;;;;7.25;5.12;;;;;;;35.46;32.30;94419.95;1660597;82;21171;-59
2022/06/30 11:24:02;;;;;;;8.78;4.92;;;;;;;35.90;31.58;94417.05;1684617;83;21010;-58
2022/06/30 11:29:17;;;;;;;5.65;5.08;;;;;;;36.82;31.11;94419.80;1689539;82;21047;-59
2022/06/30 11:31:44;;;;;;;6.60;4.90;;;;;;;37.31;30.54;94424.11;1690666;83;21011;-62
2022/06/30 11:34:15;;;;;;;7.03;4.28;;;;;;;37.70;29.75;94425.62;1686622;82;21138;-57
2022/06/30 11:36:44;;;;;;;7.63;4.60;;;;;;;38.00;29.77;94432.30;1683919;82;21001;-59
2022/06/30 11:39:22;;;;;;;6.60;4.97;;;;;;;38.30;29.68;94419.59;1677010;83;21002;-58
2022/06/30 11:41:57;;;;;;;5.40;4.92;;;;;;;38.56;29.64;94429.61;1687917;82;22233;-60
2022/06/30 11:44:39;;;;;;;5.08;4.22;;;;;;;38.67;27.03;94425.88;1656131;83;21062;-61
2022/06/30 11:47:16;;;;;;;6.37;4.75;;;;;;;38.72;28.24;94418.94;1685766;82;21155;-57
2022/06/30 11:49:59;;;;;;;6.62;4.05;;;;;;;38.24;27.88;94422.16;1691029;82;21062;-57
2022/06/30 11:52:34;;;;;;;5.25;4.47;;;;;;;37.68;27.61;94419.05;1685480;82;21014;-59